Vidnoe — UBDU — position and weather

sailwx.info

Track history (hours):
 
Tides and Currents Weather Stations Pressure Air Temp Water Temp Dewpoint Dewpoint Depression Visibility Wind Speed Wind Dir Waves Ship Positions

Vidnoe

Last reported at 2015-Feb-05 09:14 UTC. Time now 2015-Mar-04 20:21 UTC.
Position N 59°54' E 030°04'.
Warning: this ship's position is 27 days out of date.

Length 115 m; beam 17 m.

Type: Tanker. MMSI: 273516400.

Date/timePositionNaut miles runAvg speedWind from/ knotsBaromVisibWave heightAir tempDewpointWater temp
2015-Feb-05 09:14N 59°54' E 030°04'4 6.2
2015-Feb-05 08:31N 59°53' E 030°12'1 0.0
2015-Feb-04 11:32N 59°53' E 030°13'0 0.0
2015-Feb-04 09:30N 59°53' E 030°13'0 0.0
2015-Feb-03 03:27N 59°53' E 030°13'0 0.0
2015-Feb-02 19:27N 59°53' E 030°13'0 0.0
2015-Feb-02 18:17N 59°53' E 030°13'0 0.0
2015-Feb-02 17:22N 59°53' E 030°13'0 0.0
2015-Feb-02 15:33N 59°53' E 030°13'0 0.0
2015-Feb-02 14:32N 59°53' E 030°13'0 0.0
2015-Feb-02 11:20N 59°53' E 030°13'0 0.0
2015-Feb-02 10:32N 59°53' E 030°13'0 0.0
2015-Feb-02 09:33N 59°53' E 030°13'0 0.0
2015-Feb-02 08:33N 59°53' E 030°13'0 0.0
2015-Feb-02 07:33N 59°53' E 030°13'0 0.0
2015-Feb-02 06:33N 59°53' E 030°13'0 0.0
2015-Feb-02 05:33N 59°53' E 030°13'3 2.9
2015-Feb-02 04:33N 59°54' E 030°08'  
2015-Jan-28 21:04N 59°54' E 030°05'4 7.6
2015-Jan-28 20:31N 59°53' E 030°13'1 0.1
2015-Jan-28 16:23N 59°53' E 030°13'0 0.0
2015-Jan-28 08:26N 59°53' E 030°13'1 0.6
2015-Jan-28 07:17N 59°53' E 030°13'0 0.0
2015-Jan-28 06:20N 59°53' E 030°13'0 0.0
2015-Jan-28 04:20N 59°53' E 030°13'0 0.0
2015-Jan-28 03:29N 59°53' E 030°13'0 0.0
2015-Jan-28 02:26N 59°53' E 030°13'0 0.0
2015-Jan-28 00:32N 59°53' E 030°13'0 0.0
2015-Jan-27 22:26N 59°53' E 030°13'0 0.0
2015-Jan-27 21:23N 59°53' E 030°13'0 0.0
2015-Jan-27 20:32N 59°53' E 030°13'0 0.0
2015-Jan-27 19:05N 59°53' E 030°13'0 0.1
2015-Jan-27 18:17N 59°54' E 030°13'1 0.1
2015-Jan-27 00:32N 59°53' E 030°13'0 0.0
2015-Jan-26 23:26N 59°53' E 030°13'  
Track history (hours):
 
Tides and Currents Weather Stations Pressure Air Temp Water Temp Dewpoint Dewpoint Depression Visibility Wind Speed Wind Dir Waves Ship Positions

Vidnoe

Last reported at 2015-Feb-05 09:14 UTC. Time now 2015-Mar-04 20:21 UTC.
Position N 59°54' E 030°04'.
Warning: this ship's position is 27 days out of date.

Length 115 m; beam 17 m.

Type: Tanker. MMSI: 273516400.

Date/timePositionNaut miles runAvg speedWind from/ knotsBaromVisibWave heightAir tempDewpointWater temp
2015-Feb-05 09:14N 59°54' E 030°04'4 6.2
2015-Feb-05 08:31N 59°53' E 030°12'1 0.0
2015-Feb-04 11:32N 59°53' E 030°13'0 0.0
2015-Feb-04 09:30N 59°53' E 030°13'0 0.0
2015-Feb-03 03:27N 59°53' E 030°13'0 0.0
2015-Feb-02 19:27N 59°53' E 030°13'0 0.0
2015-Feb-02 18:17N 59°53' E 030°13'0 0.0
2015-Feb-02 17:22N 59°53' E 030°13'0 0.0
2015-Feb-02 15:33N 59°53' E 030°13'0 0.0
2015-Feb-02 14:32N 59°53' E 030°13'0 0.0
2015-Feb-02 11:20N 59°53' E 030°13'0 0.0
2015-Feb-02 10:32N 59°53' E 030°13'0 0.0
2015-Feb-02 09:33N 59°53' E 030°13'0 0.0
2015-Feb-02 08:33N 59°53' E 030°13'0 0.0
2015-Feb-02 07:33N 59°53' E 030°13'0 0.0
2015-Feb-02 06:33N 59°53' E 030°13'0 0.0
2015-Feb-02 05:33N 59°53' E 030°13'3 2.9
2015-Feb-02 04:33N 59°54' E 030°08'  
2015-Jan-28 21:04N 59°54' E 030°05'4 7.6
2015-Jan-28 20:31N 59°53' E 030°13'1 0.1
2015-Jan-28 16:23N 59°53' E 030°13'0 0.0
2015-Jan-28 08:26N 59°53' E 030°13'1 0.6
2015-Jan-28 07:17N 59°53' E 030°13'0 0.0
2015-Jan-28 06:20N 59°53' E 030°13'0 0.0
2015-Jan-28 04:20N 59°53' E 030°13'0 0.0
2015-Jan-28 03:29N 59°53' E 030°13'0 0.0
2015-Jan-28 02:26N 59°53' E 030°13'0 0.0
2015-Jan-28 00:32N 59°53' E 030°13'0 0.0
2015-Jan-27 22:26N 59°53' E 030°13'0 0.0
2015-Jan-27 21:23N 59°53' E 030°13'0 0.0
2015-Jan-27 20:32N 59°53' E 030°13'0 0.0
2015-Jan-27 19:05N 59°53' E 030°13'0 0.1
2015-Jan-27 18:17N 59°54' E 030°13'1 0.1
2015-Jan-27 00:32N 59°53' E 030°13'0 0.0
2015-Jan-26 23:26N 59°53' E 030°13'  

Dump ship's entire track history